sensor_id;sensor_type;location;lat;lon;timestamp;temperature;humidity
25214;DHT22;13160;51.834;4.706;2023-12-22T00:09:07;9.40;99.90
25214;DHT22;13160;51.834;4.706;2023-12-22T00:16:55;9.40;99.90
25214;DHT22;13160;51.834;4.706;2023-12-22T00:19:53;9.40;99.90
25214;DHT22;13160;51.834;4.706;2023-12-22T00:48:38;9.50;99.90
25214;DHT22;13160;51.834;4.706;2023-12-22T00:51:57;9.40;99.90
25214;DHT22;13160;51.834;4.706;2023-12-22T00:59:35;9.50;99.90
25214;DHT22;13160;51.834;4.706;2023-12-22T01:02:49;9.50;99.90
25214;DHT22;13160;51.834;4.706;2023-12-22T01:06:49;9.50;99.90
25214;DHT22;13160;51.834;4.706;2023-12-22T01:10:17;9.50;99.90
25214;DHT22;13160;51.834;4.706;2023-12-22T01:13:37;9.50;99.90
25214;DHT22;13160;51.834;4.706;2023-12-22T01:16:16;9.40;99.90
25214;DHT22;13160;51.834;4.706;2023-12-22T01:19:29;9.50;99.90
25214;DHT22;13160;51.834;4.706;2023-12-22T01:30:06;9.40;99.90
25214;DHT22;13160;51.834;4.706;2023-12-22T01:33:24;9.40;99.90
25214;DHT22;13160;51.834;4.706;2023-12-22T01:45:16;9.30;99.90
25214;DHT22;13160;51.834;4.706;2023-12-22T01:52:17;9.30;99.90
25214;DHT22;13160;51.834;4.706;2023-12-22T01:55:45;9.30;99.90
25214;DHT22;13160;51.834;4.706;2023-12-22T02:03:23;9.30;99.90
25214;DHT22;13160;51.834;4.706;2023-12-22T02:06:34;9.30;99.90
25214;DHT22;13160;51.834;4.706;2023-12-22T02:10:06;9.30;99.90
25214;DHT22;13160;51.834;4.706;2023-12-22T02:12:51;9.30;99.90
25214;DHT22;13160;51.834;4.706;2023-12-22T02:15:24;9.20;99.90
25214;DHT22;13160;51.834;4.706;2023-12-22T02:17:58;9.20;99.90
25214;DHT22;13160;51.834;4.706;2023-12-22T02:20:33;9.10;99.90
25214;DHT22;13160;51.834;4.706;2023-12-22T02:23:12;9.00;99.90
25214;DHT22;13160;51.834;4.706;2023-12-22T02:25:44;8.90;99.90
25214;DHT22;13160;51.834;4.706;2023-12-22T02:28:16;8.90;99.90
25214;DHT22;13160;51.834;4.706;2023-12-22T02:30:54;8.90;99.90
25214;DHT22;13160;51.834;4.706;2023-12-22T02:33:26;8.90;99.90
25214;DHT22;13160;51.834;4.706;2023-12-22T02:36:03;8.80;99.90
25214;DHT22;13160;51.834;4.706;2023-12-22T02:38:35;8.80;99.90
25214;DHT22;13160;51.834;4.706;2023-12-22T02:41:08;8.90;99.90
25214;DHT22;13160;51.834;4.706;2023-12-22T02:43:39;9.00;99.90
25214;DHT22;13160;51.834;4.706;2023-12-22T02:46:14;9.00;99.90
25214;DHT22;13160;51.834;4.706;2023-12-22T02:48:45;9.00;99.90
25214;DHT22;13160;51.834;4.706;2023-12-22T02:51:18;9.10;99.90
25214;DHT22;13160;51.834;4.706;2023-12-22T02:57:36;9.20;99.90
25214;DHT22;13160;51.834;4.706;2023-12-22T03:00:42;9.10;99.90
25214;DHT22;13160;51.834;4.706;2023-12-22T03:04:21;9.20;99.90
25214;DHT22;13160;51.834;4.706;2023-12-22T03:07:11;9.20;99.90
25214;DHT22;13160;51.834;4.706;2023-12-22T03:13:56;9.20;99.90
25214;DHT22;13160;51.834;4.706;2023-12-22T03:17:44;9.20;99.90
25214;DHT22;13160;51.834;4.706;2023-12-22T03:20:32;9.30;99.90
25214;DHT22;13160;51.834;4.706;2023-12-22T03:23:50;9.30;99.90
25214;DHT22;13160;51.834;4.706;2023-12-22T03:26:50;9.30;99.90
25214;DHT22;13160;51.834;4.706;2023-12-22T03:45:56;9.40;99.90
25214;DHT22;13160;51.834;4.706;2023-12-22T03:49:21;9.30;99.90
25214;DHT22;13160;51.834;4.706;2023-12-22T03:52:25;9.40;99.90
25214;DHT22;13160;51.834;4.706;2023-12-22T03:56:09;9.40;99.90
25214;DHT22;13160;51.834;4.706;2023-12-22T04:02:46;9.40;99.90
25214;DHT22;13160;51.834;4.706;2023-12-22T04:37:42;9.60;99.90
25214;DHT22;13160;51.834;4.706;2023-12-22T04:40:12;9.60;99.90
25214;DHT22;13160;51.834;4.706;2023-12-22T04:42:42;9.50;99.90
25214;DHT22;13160;51.834;4.706;2023-12-22T04:45:24;9.50;99.90
25214;DHT22;13160;51.834;4.706;2023-12-22T04:47:54;9.40;99.90
25214;DHT22;13160;51.834;4.706;2023-12-22T04:50:25;9.40;99.90
25214;DHT22;13160;51.834;4.706;2023-12-22T04:52:57;9.40;99.90
25214;DHT22;13160;51.834;4.706;2023-12-22T04:55:26;9.40;99.90
25214;DHT22;13160;51.834;4.706;2023-12-22T04:57:57;9.40;99.90
25214;DHT22;13160;51.834;4.706;2023-12-22T05:00:30;9.30;99.90
25214;DHT22;13160;51.834;4.706;2023-12-22T05:03:01;9.40;99.90
25214;DHT22;13160;51.834;4.706;2023-12-22T05:05:35;9.40;99.90
25214;DHT22;13160;51.834;4.706;2023-12-22T05:08:06;9.40;99.90
25214;DHT22;13160;51.834;4.706;2023-12-22T05:10:40;9.40;99.90
25214;DHT22;13160;51.834;4.706;2023-12-22T05:13:12;9.50;99.90
25214;DHT22;13160;51.834;4.706;2023-12-22T05:15:45;9.50;99.90
25214;DHT22;13160;51.834;4.706;2023-12-22T05:43:46;9.60;99.90
25214;DHT22;13160;51.834;4.706;2023-12-22T05:46:17;9.60;99.90
25214;DHT22;13160;51.834;4.706;2023-12-22T05:48:46;9.60;99.90
25214;DHT22;13160;51.834;4.706;2023-12-22T05:51:15;9.60;99.90
25214;DHT22;13160;51.834;4.706;2023-12-22T05:53:44;9.60;99.90
25214;DHT22;13160;51.834;4.706;2023-12-22T05:56:20;9.60;99.90
25214;DHT22;13160;51.834;4.706;2023-12-22T05:58:51;9.60;99.90
25214;DHT22;13160;51.834;4.706;2023-12-22T06:01:20;9.60;99.90
25214;DHT22;13160;51.834;4.706;2023-12-22T06:03:49;9.60;99.90
25214;DHT22;13160;51.834;4.706;2023-12-22T06:06:17;9.60;99.90
25214;DHT22;13160;51.834;4.706;2023-12-22T06:08:47;9.70;99.90
25214;DHT22;13160;51.834;4.706;2023-12-22T06:11:16;9.70;99.90
25214;DHT22;13160;51.834;4.706;2023-12-22T06:13:57;9.70;99.90
25214;DHT22;13160;51.834;4.706;2023-12-22T06:16:26;9.70;99.90
25214;DHT22;13160;51.834;4.706;2023-12-22T06:18:55;9.70;99.90
25214;DHT22;13160;51.834;4.706;2023-12-22T06:21:24;9.80;99.90
25214;DHT22;13160;51.834;4.706;2023-12-22T06:23:52;9.80;99.90
25214;DHT22;13160;51.834;4.706;2023-12-22T06:26:21;9.80;99.90
25214;DHT22;13160;51.834;4.706;2023-12-22T06:28:52;9.80;99.90
25214;DHT22;13160;51.834;4.706;2023-12-22T06:31:23;9.90;99.90
25214;DHT22;13160;51.834;4.706;2023-12-22T06:33:55;9.90;99.90
25214;DHT22;13160;51.834;4.706;2023-12-22T06:36:32;9.90;99.90
25214;DHT22;13160;51.834;4.706;2023-12-22T06:39:01;9.90;99.90
25214;DHT22;13160;51.834;4.706;2023-12-22T06:41:30;9.90;99.90
25214;DHT22;13160;51.834;4.706;2023-12-22T06:44:00;10.00;99.90
25214;DHT22;13160;51.834;4.706;2023-12-22T06:46:33;10.00;99.90
25214;DHT22;13160;51.834;4.706;2023-12-22T06:49:04;10.00;99.90
25214;DHT22;13160;51.834;4.706;2023-12-22T06:51:33;10.00;99.90
25214;DHT22;13160;51.834;4.706;2023-12-22T06:59:20;10.00;99.90
25214;DHT22;13160;51.834;4.706;2023-12-22T07:01:54;10.10;99.90
25214;DHT22;13160;51.834;4.706;2023-12-22T07:05:02;10.10;99.90
25214;DHT22;13160;51.834;4.706;2023-12-22T07:07:35;10.10;99.90
25214;DHT22;13160;51.834;4.706;2023-12-22T07:10:04;10.10;99.90
25214;DHT22;13160;51.834;4.706;2023-12-22T07:13:13;10.10;99.90
25214;DHT22;13160;51.834;4.706;2023-12-22T07:32:20;10.10;99.90
25214;DHT22;13160;51.834;4.706;2023-12-22T07:35:33;10.20;99.90
25214;DHT22;13160;51.834;4.706;2023-12-22T07:38:57;10.20;99.90
25214;DHT22;13160;51.834;4.706;2023-12-22T07:41:26;10.10;99.90
25214;DHT22;13160;51.834;4.706;2023-12-22T07:43:55;10.10;99.90
25214;DHT22;13160;51.834;4.706;2023-12-22T07:46:24;10.10;99.90
25214;DHT22;13160;51.834;4.706;2023-12-22T07:48:55;10.20;99.90
25214;DHT22;13160;51.834;4.706;2023-12-22T07:51:24;10.20;99.90
25214;DHT22;13160;51.834;4.706;2023-12-22T07:53:53;10.10;99.90
25214;DHT22;13160;51.834;4.706;2023-12-22T07:56:24;10.20;99.90
25214;DHT22;13160;51.834;4.706;2023-12-22T07:58:54;10.20;99.90
25214;DHT22;13160;51.834;4.706;2023-12-22T08:01:40;10.20;99.90
25214;DHT22;13160;51.834;4.706;2023-12-22T08:04:10;10.20;99.90
25214;DHT22;13160;51.834;4.706;2023-12-22T08:06:39;10.10;99.90
25214;DHT22;13160;51.834;4.706;2023-12-22T08:09:11;10.10;99.90
25214;DHT22;13160;51.834;4.706;2023-12-22T08:11:41;10.20;99.90
25214;DHT22;13160;51.834;4.706;2023-12-22T08:14:13;10.20;99.90
25214;DHT22;13160;51.834;4.706;2023-12-22T08:16:42;10.20;99.90
25214;DHT22;13160;51.834;4.706;2023-12-22T08:19:12;10.10;99.90
25214;DHT22;13160;51.834;4.706;2023-12-22T08:21:42;10.10;99.90
25214;DHT22;13160;51.834;4.706;2023-12-22T08:24:14;10.20;99.90
25214;DHT22;13160;51.834;4.706;2023-12-22T08:26:51;10.10;99.90
25214;DHT22;13160;51.834;4.706;2023-12-22T08:29:20;10.20;99.90
25214;DHT22;13160;51.834;4.706;2023-12-22T08:31:49;10.20;99.90
25214;DHT22;13160;51.834;4.706;2023-12-22T08:34:18;10.20;99.90
25214;DHT22;13160;51.834;4.706;2023-12-22T08:36:47;10.20;99.90
25214;DHT22;13160;51.834;4.706;2023-12-22T08:39:16;10.20;99.90
25214;DHT22;13160;51.834;4.706;2023-12-22T08:41:46;10.20;99.90
25214;DHT22;13160;51.834;4.706;2023-12-22T08:44:17;10.20;99.90
25214;DHT22;13160;51.834;4.706;2023-12-22T08:46:46;10.20;99.90
25214;DHT22;13160;51.834;4.706;2023-12-22T08:49:15;10.20;99.90
25214;DHT22;13160;51.834;4.706;2023-12-22T08:51:44;10.20;99.90
25214;DHT22;13160;51.834;4.706;2023-12-22T08:54:13;10.20;99.90
25214;DHT22;13160;51.834;4.706;2023-12-22T08:56:42;10.20;99.90
25214;DHT22;13160;51.834;4.706;2023-12-22T08:59:10;10.20;99.90
25214;DHT22;13160;51.834;4.706;2023-12-22T09:01:44;10.20;99.90
25214;DHT22;13160;51.834;4.706;2023-12-22T09:04:20;10.30;99.90
25214;DHT22;13160;51.834;4.706;2023-12-22T09:06:50;10.30;99.90
25214;DHT22;13160;51.834;4.706;2023-12-22T09:09:19;10.30;99.90
25214;DHT22;13160;51.834;4.706;2023-12-22T09:11:50;10.30;99.90
25214;DHT22;13160;51.834;4.706;2023-12-22T09:14:20;10.40;99.90
25214;DHT22;13160;51.834;4.706;2023-12-22T09:17:01;10.40;99.90
25214;DHT22;13160;51.834;4.706;2023-12-22T09:19:39;10.40;99.90
25214;DHT22;13160;51.834;4.706;2023-12-22T09:22:12;10.40;99.90
25214;DHT22;13160;51.834;4.706;2023-12-22T09:25:07;10.50;99.90
25214;DHT22;13160;51.834;4.706;2023-12-22T09:27:37;10.50;99.90
25214;DHT22;13160;51.834;4.706;2023-12-22T09:30:08;10.60;99.90
25214;DHT22;13160;51.834;4.706;2023-12-22T09:32:39;10.60;99.90
25214;DHT22;13160;51.834;4.706;2023-12-22T09:35:12;10.70;99.90
25214;DHT22;13160;51.834;4.706;2023-12-22T09:37:46;10.70;99.90
25214;DHT22;13160;51.834;4.706;2023-12-22T09:40:21;10.70;99.90
25214;DHT22;13160;51.834;4.706;2023-12-22T09:45:56;10.80;99.90
25214;DHT22;13160;51.834;4.706;2023-12-22T09:49:47;10.80;99.90
25214;DHT22;13160;51.834;4.706;2023-12-22T09:52:56;10.90;99.90
25214;DHT22;13160;51.834;4.706;2023-12-22T09:56:35;10.90;99.90
25214;DHT22;13160;51.834;4.706;2023-12-22T10:03:16;11.00;99.90
25214;DHT22;13160;51.834;4.706;2023-12-22T10:05:48;11.00;99.90
25214;DHT22;13160;51.834;4.706;2023-12-22T10:08:18;11.00;99.90
25214;DHT22;13160;51.834;4.706;2023-12-22T10:10:48;11.00;99.90
25214;DHT22;13160;51.834;4.706;2023-12-22T10:13:24;11.00;99.90
25214;DHT22;13160;51.834;4.706;2023-12-22T10:16:20;11.10;99.90
25214;DHT22;13160;51.834;4.706;2023-12-22T10:18:53;11.10;99.90
25214;DHT22;13160;51.834;4.706;2023-12-22T10:40:59;11.30;99.90
25214;DHT22;13160;51.834;4.706;2023-12-22T10:52:21;11.40;99.90
25214;DHT22;13160;51.834;4.706;2023-12-22T10:54:49;11.40;99.90
25214;DHT22;13160;51.834;4.706;2023-12-22T10:57:20;11.40;99.90
25214;DHT22;13160;51.834;4.706;2023-12-22T10:59:49;11.40;99.90
25214;DHT22;13160;51.834;4.706;2023-12-22T11:02:27;11.40;99.90
25214;DHT22;13160;51.834;4.706;2023-12-22T11:48:33;11.50;99.90
25214;DHT22;13160;51.834;4.706;2023-12-22T11:51:12;11.50;99.90
25214;DHT22;13160;51.834;4.706;2023-12-22T11:53:42;11.50;99.90
25214;DHT22;13160;51.834;4.706;2023-12-22T11:56:13;11.40;99.90
25214;DHT22;13160;51.834;4.706;2023-12-22T11:58:47;11.40;99.90
25214;DHT22;13160;51.834;4.706;2023-12-22T12:01:23;11.50;99.90
25214;DHT22;13160;51.834;4.706;2023-12-22T12:03:57;11.50;99.90
25214;DHT22;13160;51.834;4.706;2023-12-22T12:06:32;11.50;99.90
25214;DHT22;13160;51.834;4.706;2023-12-22T12:09:06;11.50;99.90
25214;DHT22;13160;51.834;4.706;2023-12-22T12:29:16;11.50;99.90
25214;DHT22;13160;51.834;4.706;2023-12-22T12:32:33;11.50;99.90
25214;DHT22;13160;51.834;4.706;2023-12-22T12:35:48;11.50;99.90
25214;DHT22;13160;51.834;4.706;2023-12-22T12:42:00;11.60;99.90
25214;DHT22;13160;51.834;4.706;2023-12-22T12:44:39;11.60;99.90
25214;DHT22;13160;51.834;4.706;2023-12-22T12:47:29;11.60;99.90
25214;DHT22;13160;51.834;4.706;2023-12-22T12:50:29;11.60;99.90
25214;DHT22;13160;51.834;4.706;2023-12-22T12:53:19;11.70;99.90
25214;DHT22;13160;51.834;4.706;2023-12-22T12:56:47;11.70;99.90
25214;DHT22;13160;51.834;4.706;2023-12-22T13:18:58;11.60;99.90
25214;DHT22;13160;51.834;4.706;2023-12-22T13:21:44;11.60;99.90
25214;DHT22;13160;51.834;4.706;2023-12-22T13:24:19;11.70;99.90
25214;DHT22;13160;51.834;4.706;2023-12-22T13:27:01;11.60;99.90
25214;DHT22;13160;51.834;4.706;2023-12-22T13:29:58;11.60;99.90
25214;DHT22;13160;51.834;4.706;2023-12-22T13:32:41;11.70;99.90
25214;DHT22;13160;51.834;4.706;2023-12-22T13:41:59;11.60;99.90
25214;DHT22;13160;51.834;4.706;2023-12-22T13:44:54;11.70;99.90
25214;DHT22;13160;51.834;4.706;2023-12-22T13:47:47;11.70;99.90
25214;DHT22;13160;51.834;4.706;2023-12-22T13:51:10;11.70;99.90
25214;DHT22;13160;51.834;4.706;2023-12-22T13:54:23;11.70;99.90
25214;DHT22;13160;51.834;4.706;2023-12-22T13:57:37;11.60;99.90
25214;DHT22;13160;51.834;4.706;2023-12-22T14:01:16;11.70;99.90
25214;DHT22;13160;51.834;4.706;2023-12-22T14:08:15;11.70;99.90
25214;DHT22;13160;51.834;4.706;2023-12-22T14:10:45;11.60;99.90
25214;DHT22;13160;51.834;4.706;2023-12-22T14:13:52;11.60;99.90
25214;DHT22;13160;51.834;4.706;2023-12-22T14:16:23;11.70;99.90
25214;DHT22;13160;51.834;4.706;2023-12-22T14:18:52;11.70;99.90
25214;DHT22;13160;51.834;4.706;2023-12-22T14:21:23;11.70;99.90
25214;DHT22;13160;51.834;4.706;2023-12-22T14:23:58;11.70;99.90
25214;DHT22;13160;51.834;4.706;2023-12-22T14:26:31;11.70;99.90
25214;DHT22;13160;51.834;4.706;2023-12-22T14:29:39;11.70;99.90
25214;DHT22;13160;51.834;4.706;2023-12-22T14:33:08;11.70;99.90
25214;DHT22;13160;51.834;4.706;2023-12-22T14:36:13;11.60;99.90
25214;DHT22;13160;51.834;4.706;2023-12-22T14:39:57;11.60;99.90
25214;DHT22;13160;51.834;4.706;2023-12-22T14:43:37;11.70;99.90
25214;DHT22;13160;51.834;4.706;2023-12-22T14:46:39;11.70;99.90
25214;DHT22;13160;51.834;4.706;2023-12-22T14:49:26;11.70;99.90
25214;DHT22;13160;51.834;4.706;2023-12-22T14:54:50;11.70;99.90
25214;DHT22;13160;51.834;4.706;2023-12-22T15:01:49;11.60;99.90
25214;DHT22;13160;51.834;4.706;2023-12-22T15:04:53;11.70;99.90
25214;DHT22;13160;51.834;4.706;2023-12-22T15:07:27;11.70;99.90
25214;DHT22;13160;51.834;4.706;2023-12-22T15:09:56;11.70;99.90
25214;DHT22;13160;51.834;4.706;2023-12-22T15:12:26;11.70;99.90
25214;DHT22;13160;51.834;4.706;2023-12-22T15:14:59;11.70;99.90
25214;DHT22;13160;51.834;4.706;2023-12-22T15:17:30;11.70;99.90
25214;DHT22;13160;51.834;4.706;2023-12-22T15:20:01;11.70;99.90
25214;DHT22;13160;51.834;4.706;2023-12-22T15:22:44;11.70;99.90
25214;DHT22;13160;51.834;4.706;2023-12-22T15:25:22;11.70;99.90
25214;DHT22;13160;51.834;4.706;2023-12-22T15:27:58;11.70;99.90
25214;DHT22;13160;51.834;4.706;2023-12-22T15:39:50;11.70;99.90
25214;DHT22;13160;51.834;4.706;2023-12-22T15:42:24;11.70;99.90
25214;DHT22;13160;51.834;4.706;2023-12-22T15:45:00;11.70;99.90
25214;DHT22;13160;51.834;4.706;2023-12-22T15:47:31;11.70;99.90
25214;DHT22;13160;51.834;4.706;2023-12-22T16:01:33;11.70;99.90
25214;DHT22;13160;51.834;4.706;2023-12-22T16:04:04;11.70;99.90
25214;DHT22;13160;51.834;4.706;2023-12-22T16:06:40;11.70;99.90
25214;DHT22;13160;51.834;4.706;2023-12-22T16:09:39;11.70;99.90
25214;DHT22;13160;51.834;4.706;2023-12-22T16:21:47;11.60;99.90
25214;DHT22;13160;51.834;4.706;2023-12-22T16:24:20;11.60;99.90
25214;DHT22;13160;51.834;4.706;2023-12-22T17:10:23;11.60;99.90
25214;DHT22;13160;51.834;4.706;2023-12-22T17:12:52;11.60;99.90
25214;DHT22;13160;51.834;4.706;2023-12-22T17:18:11;11.60;99.90
25214;DHT22;13160;51.834;4.706;2023-12-22T17:21:33;11.60;99.90
25214;DHT22;13160;51.834;4.706;2023-12-22T17:24:44;11.60;99.90
25214;DHT22;13160;51.834;4.706;2023-12-22T17:31:41;11.60;99.90
25214;DHT22;13160;51.834;4.706;2023-12-22T17:34:44;11.60;99.90
25214;DHT22;13160;51.834;4.706;2023-12-22T17:38:37;11.60;99.90
25214;DHT22;13160;51.834;4.706;2023-12-22T17:41:08;11.60;99.90
25214;DHT22;13160;51.834;4.706;2023-12-22T17:43:38;11.60;99.90
25214;DHT22;13160;51.834;4.706;2023-12-22T17:46:07;11.60;99.90
25214;DHT22;13160;51.834;4.706;2023-12-22T17:48:35;11.60;99.90
25214;DHT22;13160;51.834;4.706;2023-12-22T17:51:04;11.60;99.90
25214;DHT22;13160;51.834;4.706;2023-12-22T17:53:34;11.60;99.90
25214;DHT22;13160;51.834;4.706;2023-12-22T17:56:03;11.60;99.90
25214;DHT22;13160;51.834;4.706;2023-12-22T17:58:32;11.60;99.90
25214;DHT22;13160;51.834;4.706;2023-12-22T18:17:49;11.50;99.90
25214;DHT22;13160;51.834;4.706;2023-12-22T18:20:31;11.50;99.90
25214;DHT22;13160;51.834;4.706;2023-12-22T18:40:46;11.50;99.90
25214;DHT22;13160;51.834;4.706;2023-12-22T18:43:19;11.50;99.90
25214;DHT22;13160;51.834;4.706;2023-12-22T18:45:55;11.50;99.90
25214;DHT22;13160;51.834;4.706;2023-12-22T18:48:56;11.50;99.90
25214;DHT22;13160;51.834;4.706;2023-12-22T18:51:59;11.50;99.90
25214;DHT22;13160;51.834;4.706;2023-12-22T18:54:30;11.50;99.90
25214;DHT22;13160;51.834;4.706;2023-12-22T18:57:05;11.50;99.90
25214;DHT22;13160;51.834;4.706;2023-12-22T19:00:21;11.50;99.90
25214;DHT22;13160;51.834;4.706;2023-12-22T19:06:10;11.40;99.90
25214;DHT22;13160;51.834;4.706;2023-12-22T19:08:45;11.50;99.90
25214;DHT22;13160;51.834;4.706;2023-12-22T19:11:15;11.50;99.90
25214;DHT22;13160;51.834;4.706;2023-12-22T19:14:16;11.50;99.90
25214;DHT22;13160;51.834;4.706;2023-12-22T19:17:13;11.50;99.90
25214;DHT22;13160;51.834;4.706;2023-12-22T19:20:37;11.50;99.90
25214;DHT22;13160;51.834;4.706;2023-12-22T20:01:15;11.40;99.90
25214;DHT22;13160;51.834;4.706;2023-12-22T20:03:51;11.40;99.90
25214;DHT22;13160;51.834;4.706;2023-12-22T20:06:22;11.40;99.90
25214;DHT22;13160;51.834;4.706;2023-12-22T20:09:02;11.40;99.90
25214;DHT22;13160;51.834;4.706;2023-12-22T20:11:46;11.30;99.90
25214;DHT22;13160;51.834;4.706;2023-12-22T20:14:46;11.40;99.90
25214;DHT22;13160;51.834;4.706;2023-12-22T20:21:25;11.30;99.90
25214;DHT22;13160;51.834;4.706;2023-12-22T20:24:45;11.30;99.90
25214;DHT22;13160;51.834;4.706;2023-12-22T20:27:57;11.30;99.90
25214;DHT22;13160;51.834;4.706;2023-12-22T20:36:48;11.30;99.90
25214;DHT22;13160;51.834;4.706;2023-12-22T20:40:02;11.30;99.90
25214;DHT22;13160;51.834;4.706;2023-12-22T21:25:35;10.80;99.90
25214;DHT22;13160;51.834;4.706;2023-12-22T21:28:35;10.70;99.90
25214;DHT22;13160;51.834;4.706;2023-12-22T21:32:30;10.70;99.90
25214;DHT22;13160;51.834;4.706;2023-12-22T22:03:19;11.00;99.90
25214;DHT22;13160;51.834;4.706;2023-12-22T22:39:19;9.10;99.90
25214;DHT22;13160;51.834;4.706;2023-12-22T22:42:14;9.10;99.90
25214;DHT22;13160;51.834;4.706;2023-12-22T22:48:41;9.00;99.90
25214;DHT22;13160;51.834;4.706;2023-12-22T22:51:36;9.00;99.90
25214;DHT22;13160;51.834;4.706;2023-12-22T23:36:16;9.10;99.90
25214;DHT22;13160;51.834;4.706;2023-12-22T23:38:56;9.10;99.90
25214;DHT22;13160;51.834;4.706;2023-12-22T23:42:00;9.10;99.90
25214;DHT22;13160;51.834;4.706;2023-12-22T23:44:51;9.20;99.90
